sensor_id;sensor_type;location;lat;lon;timestamp;P1;durP1;ratioP1;P2;durP2;ratioP2
76850;SDS011;65824;43.726;20.692;2023-04-01T00:00:55;10.27;;;4.78;;
76850;SDS011;65824;43.726;20.692;2023-04-01T00:03:23;11.57;;;4.60;;
76850;SDS011;65824;43.726;20.692;2023-04-01T00:05:49;10.20;;;4.60;;
76850;SDS011;65824;43.726;20.692;2023-04-01T00:08:15;7.15;;;3.30;;
76850;SDS011;65824;43.726;20.692;2023-04-01T00:10:43;7.55;;;3.08;;
76850;SDS011;65824;43.726;20.692;2023-04-01T00:13:09;6.75;;;3.30;;
76850;SDS011;65824;43.726;20.692;2023-04-01T00:15:35;6.32;;;2.58;;
76850;SDS011;65824;43.726;20.692;2023-04-01T00:18:00;7.00;;;2.33;;
76850;SDS011;65824;43.726;20.692;2023-04-01T00:20:26;6.75;;;2.30;;
76850;SDS011;65824;43.726;20.692;2023-04-01T00:22:51;6.63;;;2.20;;
76850;SDS011;65824;43.726;20.692;2023-04-01T00:25:17;8.15;;;2.30;;
76850;SDS011;65824;43.726;20.692;2023-04-01T00:27:43;6.85;;;3.42;;
76850;SDS011;65824;43.726;20.692;2023-04-01T00:30:09;7.70;;;3.15;;
76850;SDS011;65824;43.726;20.692;2023-04-01T00:32:36;9.35;;;3.03;;
76850;SDS011;65824;43.726;20.692;2023-04-01T00:35:02;6.00;;;3.00;;
76850;SDS011;65824;43.726;20.692;2023-04-01T00:37:28;8.77;;;3.30;;
76850;SDS011;65824;43.726;20.692;2023-04-01T00:39:54;6.07;;;2.63;;
76850;SDS011;65824;43.726;20.692;2023-04-01T00:42:19;6.43;;;2.67;;
76850;SDS011;65824;43.726;20.692;2023-04-01T00:44:47;5.55;;;2.45;;
76850;SDS011;65824;43.726;20.692;2023-04-01T00:47:15;8.32;;;2.53;;
76850;SDS011;65824;43.726;20.692;2023-04-01T00:49:42;6.47;;;2.30;;
76850;SDS011;65824;43.726;20.692;2023-04-01T00:52:11;7.07;;;2.53;;
76850;SDS011;65824;43.726;20.692;2023-04-01T00:54:38;7.05;;;1.92;;
76850;SDS011;65824;43.726;20.692;2023-04-01T00:57:12;6.03;;;2.30;;
76850;SDS011;65824;43.726;20.692;2023-04-01T00:59:41;6.43;;;2.42;;
76850;SDS011;65824;43.726;20.692;2023-04-01T01:02:10;13.00;;;2.72;;
76850;SDS011;65824;43.726;20.692;2023-04-01T01:04:36;9.15;;;4.65;;
76850;SDS011;65824;43.726;20.692;2023-04-01T01:12:40;7.55;;;2.67;;
76850;SDS011;65824;43.726;20.692;2023-04-01T01:31:37;15.93;;;6.65;;
76850;SDS011;65824;43.726;20.692;2023-04-01T01:34:23;20.42;;;7.97;;
76850;SDS011;65824;43.726;20.692;2023-04-01T01:37:19;18.17;;;6.90;;
76850;SDS011;65824;43.726;20.692;2023-04-01T01:39:54;13.85;;;5.03;;
76850;SDS011;65824;43.726;20.692;2023-04-01T01:42:21;9.57;;;3.95;;
76850;SDS011;65824;43.726;20.692;2023-04-01T01:44:48;9.73;;;4.30;;
76850;SDS011;65824;43.726;20.692;2023-04-01T01:47:14;8.40;;;3.95;;
76850;SDS011;65824;43.726;20.692;2023-04-01T01:49:40;8.05;;;2.97;;
76850;SDS011;65824;43.726;20.692;2023-04-01T01:52:07;9.73;;;2.97;;
76850;SDS011;65824;43.726;20.692;2023-04-01T01:54:32;14.30;;;4.03;;
76850;SDS011;65824;43.726;20.692;2023-04-01T01:57:05;12.15;;;4.28;;
76850;SDS011;65824;43.726;20.692;2023-04-01T01:59:33;10.15;;;3.28;;
76850;SDS011;65824;43.726;20.692;2023-04-01T02:02:02;7.90;;;2.28;;
76850;SDS011;65824;43.726;20.692;2023-04-01T02:04:33;4.63;;;2.10;;
76850;SDS011;65824;43.726;20.692;2023-04-01T02:07:00;7.50;;;2.10;;
76850;SDS011;65824;43.726;20.692;2023-04-01T02:09:28;4.95;;;2.00;;
76850;SDS011;65824;43.726;20.692;2023-04-01T02:12:03;6.43;;;2.30;;
76850;SDS011;65824;43.726;20.692;2023-04-01T02:17:06;7.22;;;2.72;;
76850;SDS011;65824;43.726;20.692;2023-04-01T02:19:56;8.27;;;2.47;;
76850;SDS011;65824;43.726;20.692;2023-04-01T02:22:28;7.55;;;2.20;;
76850;SDS011;65824;43.726;20.692;2023-04-01T02:24:57;6.00;;;2.60;;
76850;SDS011;65824;43.726;20.692;2023-04-01T02:27:23;8.30;;;2.58;;
76850;SDS011;65824;43.726;20.692;2023-04-01T02:29:50;7.22;;;2.53;;
76850;SDS011;65824;43.726;20.692;2023-04-01T02:32:16;8.88;;;2.40;;
76850;SDS011;65824;43.726;20.692;2023-04-01T02:34:43;5.72;;;2.25;;
76850;SDS011;65824;43.726;20.692;2023-04-01T02:37:08;5.38;;;1.77;;
76850;SDS011;65824;43.726;20.692;2023-04-01T02:39:34;8.93;;;2.40;;
76850;SDS011;65824;43.726;20.692;2023-04-01T02:42:02;5.10;;;1.88;;
76850;SDS011;65824;43.726;20.692;2023-04-01T02:44:28;6.10;;;1.98;;
76850;SDS011;65824;43.726;20.692;2023-04-01T02:46:55;10.30;;;2.40;;
76850;SDS011;65824;43.726;20.692;2023-04-01T02:49:20;7.95;;;2.03;;
76850;SDS011;65824;43.726;20.692;2023-04-01T02:51:45;7.05;;;2.15;;
76850;SDS011;65824;43.726;20.692;2023-04-01T02:54:14;5.82;;;2.40;;
76850;SDS011;65824;43.726;20.692;2023-04-01T02:56:39;7.72;;;2.30;;
76850;SDS011;65824;43.726;20.692;2023-04-01T02:59:05;7.30;;;2.35;;
76850;SDS011;65824;43.726;20.692;2023-04-01T03:01:30;9.95;;;2.78;;
76850;SDS011;65824;43.726;20.692;2023-04-01T03:03:56;15.07;;;4.60;;
76850;SDS011;65824;43.726;20.692;2023-04-01T03:06:21;15.85;;;5.70;;
76850;SDS011;65824;43.726;20.692;2023-04-01T03:08:47;20.30;;;7.00;;
76850;SDS011;65824;43.726;20.692;2023-04-01T03:11:12;19.65;;;7.43;;
76850;SDS011;65824;43.726;20.692;2023-04-01T03:13:39;18.40;;;6.40;;
76850;SDS011;65824;43.726;20.692;2023-04-01T03:16:05;20.75;;;6.15;;
76850;SDS011;65824;43.726;20.692;2023-04-01T03:18:30;13.18;;;4.82;;
76850;SDS011;65824;43.726;20.692;2023-04-01T03:20:56;11.18;;;4.47;;
76850;SDS011;65824;43.726;20.692;2023-04-01T03:23:21;10.27;;;3.63;;
76850;SDS011;65824;43.726;20.692;2023-04-01T03:25:49;8.13;;;3.10;;
76850;SDS011;65824;43.726;20.692;2023-04-01T03:28:15;7.47;;;2.47;;
76850;SDS011;65824;43.726;20.692;2023-04-01T03:30:40;8.75;;;2.58;;
76850;SDS011;65824;43.726;20.692;2023-04-01T03:33:05;7.20;;;2.40;;
76850;SDS011;65824;43.726;20.692;2023-04-01T03:35:31;8.10;;;3.08;;
76850;SDS011;65824;43.726;20.692;2023-04-01T03:37:57;9.02;;;2.50;;
76850;SDS011;65824;43.726;20.692;2023-04-01T03:40:22;17.48;;;10.95;;
76850;SDS011;65824;43.726;20.692;2023-04-01T03:42:49;15.95;;;10.77;;
76850;SDS011;65824;43.726;20.692;2023-04-01T03:45:16;12.00;;;6.45;;
76850;SDS011;65824;43.726;20.692;2023-04-01T03:47:42;10.15;;;4.88;;
76850;SDS011;65824;43.726;20.692;2023-04-01T03:50:09;16.98;;;7.18;;
76850;SDS011;65824;43.726;20.692;2023-04-01T03:52:36;15.57;;;7.80;;
76850;SDS011;65824;43.726;20.692;2023-04-01T03:55:02;17.88;;;7.22;;
76850;SDS011;65824;43.726;20.692;2023-04-01T03:57:27;17.58;;;11.88;;
76850;SDS011;65824;43.726;20.692;2023-04-01T03:59:53;17.65;;;10.68;;
76850;SDS011;65824;43.726;20.692;2023-04-01T04:02:18;12.15;;;5.60;;
76850;SDS011;65824;43.726;20.692;2023-04-01T04:04:44;8.73;;;4.20;;
76850;SDS011;65824;43.726;20.692;2023-04-01T04:07:11;6.82;;;3.20;;
76850;SDS011;65824;43.726;20.692;2023-04-01T04:09:36;9.13;;;4.15;;
76850;SDS011;65824;43.726;20.692;2023-04-01T04:12:02;12.52;;;5.40;;
76850;SDS011;65824;43.726;20.692;2023-04-01T04:14:30;9.70;;;4.80;;
76850;SDS011;65824;43.726;20.692;2023-04-01T04:16:56;10.32;;;4.70;;
76850;SDS011;65824;43.726;20.692;2023-04-01T04:19:24;8.80;;;3.20;;
76850;SDS011;65824;43.726;20.692;2023-04-01T04:21:49;6.95;;;3.10;;
76850;SDS011;65824;43.726;20.692;2023-04-01T04:24:15;8.50;;;3.10;;
76850;SDS011;65824;43.726;20.692;2023-04-01T04:26:41;8.30;;;2.78;;
76850;SDS011;65824;43.726;20.692;2023-04-01T04:29:07;9.32;;;3.33;;
76850;SDS011;65824;43.726;20.692;2023-04-01T04:31:32;10.32;;;3.08;;
76850;SDS011;65824;43.726;20.692;2023-04-01T04:33:58;8.35;;;3.85;;
76850;SDS011;65824;43.726;20.692;2023-04-01T04:36:25;12.15;;;4.38;;
76850;SDS011;65824;43.726;20.692;2023-04-01T04:38:50;8.82;;;3.67;;
76850;SDS011;65824;43.726;20.692;2023-04-01T04:41:16;7.03;;;3.17;;
76850;SDS011;65824;43.726;20.692;2023-04-01T04:43:48;7.32;;;3.10;;
76850;SDS011;65824;43.726;20.692;2023-04-01T04:46:17;11.63;;;3.90;;
76850;SDS011;65824;43.726;20.692;2023-04-01T04:48:43;7.68;;;3.80;;
76850;SDS011;65824;43.726;20.692;2023-04-01T04:51:12;10.43;;;4.13;;
76850;SDS011;65824;43.726;20.692;2023-04-01T04:53:39;10.70;;;4.43;;
76850;SDS011;65824;43.726;20.692;2023-04-01T04:56:05;8.50;;;4.13;;
76850;SDS011;65824;43.726;20.692;2023-04-01T04:58:31;9.57;;;4.22;;
76850;SDS011;65824;43.726;20.692;2023-04-01T05:00:57;11.38;;;4.97;;
76850;SDS011;65824;43.726;20.692;2023-04-01T05:03:22;13.13;;;6.13;;
76850;SDS011;65824;43.726;20.692;2023-04-01T05:05:49;11.90;;;5.57;;
76850;SDS011;65824;43.726;20.692;2023-04-01T05:08:16;12.95;;;6.05;;
76850;SDS011;65824;43.726;20.692;2023-04-01T05:10:43;15.80;;;5.93;;
76850;SDS011;65824;43.726;20.692;2023-04-01T05:13:09;13.48;;;5.20;;
76850;SDS011;65824;43.726;20.692;2023-04-01T05:15:36;10.38;;;5.30;;
76850;SDS011;65824;43.726;20.692;2023-04-01T05:18:02;10.48;;;5.38;;
76850;SDS011;65824;43.726;20.692;2023-04-01T05:20:28;11.27;;;5.07;;
76850;SDS011;65824;43.726;20.692;2023-04-01T05:22:56;12.52;;;5.35;;
76850;SDS011;65824;43.726;20.692;2023-04-01T05:25:22;17.40;;;6.82;;
76850;SDS011;65824;43.726;20.692;2023-04-01T05:27:48;14.65;;;6.90;;
76850;SDS011;65824;43.726;20.692;2023-04-01T05:30:16;13.35;;;6.35;;
76850;SDS011;65824;43.726;20.692;2023-04-01T05:32:43;10.65;;;5.78;;
76850;SDS011;65824;43.726;20.692;2023-04-01T05:35:10;10.90;;;5.93;;
76850;SDS011;65824;43.726;20.692;2023-04-01T05:37:36;12.45;;;6.55;;
76850;SDS011;65824;43.726;20.692;2023-04-01T05:40:02;13.75;;;6.05;;
76850;SDS011;65824;43.726;20.692;2023-04-01T05:42:28;14.45;;;7.30;;
76850;SDS011;65824;43.726;20.692;2023-04-01T05:44:54;14.70;;;7.32;;
76850;SDS011;65824;43.726;20.692;2023-04-01T05:47:21;14.40;;;8.25;;
76850;SDS011;65824;43.726;20.692;2023-04-01T05:49:48;15.55;;;8.48;;
76850;SDS011;65824;43.726;20.692;2023-04-01T05:52:15;18.02;;;7.80;;
76850;SDS011;65824;43.726;20.692;2023-04-01T05:54:41;14.95;;;7.97;;
76850;SDS011;65824;43.726;20.692;2023-04-01T05:57:06;14.73;;;7.25;;
76850;SDS011;65824;43.726;20.692;2023-04-01T05:59:31;11.40;;;6.10;;
76850;SDS011;65824;43.726;20.692;2023-04-01T06:01:57;16.80;;;7.68;;
76850;SDS011;65824;43.726;20.692;2023-04-01T06:04:23;17.83;;;7.70;;
76850;SDS011;65824;43.726;20.692;2023-04-01T06:06:50;18.48;;;9.32;;
76850;SDS011;65824;43.726;20.692;2023-04-01T06:09:18;21.00;;;10.65;;
76850;SDS011;65824;43.726;20.692;2023-04-01T06:21:01;13.20;;;6.85;;
76850;SDS011;65824;43.726;20.692;2023-04-01T06:26:59;13.27;;;7.10;;
76850;SDS011;65824;43.726;20.692;2023-04-01T06:29:36;13.23;;;7.20;;
76850;SDS011;65824;43.726;20.692;2023-04-01T06:32:29;12.35;;;6.70;;
76850;SDS011;65824;43.726;20.692;2023-04-01T06:38:30;11.18;;;6.00;;
76850;SDS011;65824;43.726;20.692;2023-04-01T06:46:47;16.05;;;6.90;;
76850;SDS011;65824;43.726;20.692;2023-04-01T06:49:21;15.38;;;6.78;;
76850;SDS011;65824;43.726;20.692;2023-04-01T06:52:02;17.25;;;7.72;;
76850;SDS011;65824;43.726;20.692;2023-04-01T06:54:52;20.50;;;8.90;;
76850;SDS011;65824;43.726;20.692;2023-04-01T07:00:19;12.27;;;5.53;;
76850;SDS011;65824;43.726;20.692;2023-04-01T07:02:54;14.15;;;6.22;;
76850;SDS011;65824;43.726;20.692;2023-04-01T07:07:53;13.85;;;5.88;;
76850;SDS011;65824;43.726;20.692;2023-04-01T07:10:42;13.13;;;6.20;;
76850;SDS011;65824;43.726;20.692;2023-04-01T07:13:18;11.90;;;6.10;;
76850;SDS011;65824;43.726;20.692;2023-04-01T07:21:55;12.90;;;6.28;;
76850;SDS011;65824;43.726;20.692;2023-04-01T07:24:26;9.63;;;4.78;;
76850;SDS011;65824;43.726;20.692;2023-04-01T07:26:54;13.20;;;6.70;;
76850;SDS011;65824;43.726;20.692;2023-04-01T07:29:22;14.57;;;7.10;;
76850;SDS011;65824;43.726;20.692;2023-04-01T07:32:07;13.60;;;7.35;;
76850;SDS011;65824;43.726;20.692;2023-04-01T07:37:51;11.52;;;5.50;;
76850;SDS011;65824;43.726;20.692;2023-04-01T07:46:13;7.80;;;3.40;;
76850;SDS011;65824;43.726;20.692;2023-04-01T07:48:49;7.63;;;3.80;;
76850;SDS011;65824;43.726;20.692;2023-04-01T07:54:26;11.93;;;6.25;;
76850;SDS011;65824;43.726;20.692;2023-04-01T08:08:24;10.70;;;6.00;;
76850;SDS011;65824;43.726;20.692;2023-04-01T08:10:56;10.90;;;5.82;;
76850;SDS011;65824;43.726;20.692;2023-04-01T08:18:53;12.90;;;4.95;;
76850;SDS011;65824;43.726;20.692;2023-04-01T08:21:25;10.88;;;5.25;;
76850;SDS011;65824;43.726;20.692;2023-04-01T08:23:55;11.65;;;5.28;;
76850;SDS011;65824;43.726;20.692;2023-04-01T08:31:43;10.02;;;4.38;;
76850;SDS011;65824;43.726;20.692;2023-04-01T08:34:25;10.13;;;4.28;;
76850;SDS011;65824;43.726;20.692;2023-04-01T08:36:57;10.68;;;4.28;;
76850;SDS011;65824;43.726;20.692;2023-04-01T08:39:29;9.65;;;4.40;;
76850;SDS011;65824;43.726;20.692;2023-04-01T08:45:21;7.35;;;3.25;;
76850;SDS011;65824;43.726;20.692;2023-04-01T08:53:48;6.70;;;3.83;;
76850;SDS011;65824;43.726;20.692;2023-04-01T08:56:54;11.68;;;4.00;;
76850;SDS011;65824;43.726;20.692;2023-04-01T08:59:32;7.88;;;4.65;;
76850;SDS011;65824;43.726;20.692;2023-04-01T09:02:21;11.07;;;5.22;;
76850;SDS011;65824;43.726;20.692;2023-04-01T09:10:57;6.40;;;2.47;;
76850;SDS011;65824;43.726;20.692;2023-04-01T09:16:12;8.27;;;3.30;;
76850;SDS011;65824;43.726;20.692;2023-04-01T09:18:49;4.68;;;2.00;;
76850;SDS011;65824;43.726;20.692;2023-04-01T09:21:29;4.53;;;1.98;;
76850;SDS011;65824;43.726;20.692;2023-04-01T09:26:51;6.35;;;2.00;;
76850;SDS011;65824;43.726;20.692;2023-04-01T09:32:17;7.00;;;1.98;;
76850;SDS011;65824;43.726;20.692;2023-04-01T09:34:52;11.95;;;2.08;;
76850;SDS011;65824;43.726;20.692;2023-04-01T09:40:37;6.68;;;2.00;;
76850;SDS011;65824;43.726;20.692;2023-04-01T09:43:34;4.95;;;1.83;;
76850;SDS011;65824;43.726;20.692;2023-04-01T09:49:06;6.72;;;2.00;;
76850;SDS011;65824;43.726;20.692;2023-04-01T10:28:16;12.80;;;5.50;;
76850;SDS011;65824;43.726;20.692;2023-04-01T10:42:29;6.25;;;3.28;;
76850;SDS011;65824;43.726;20.692;2023-04-01T11:12:38;3.70;;;1.85;;
76850;SDS011;65824;43.726;20.692;2023-04-01T11:15:24;3.67;;;1.55;;
76850;SDS011;65824;43.726;20.692;2023-04-01T11:23:41;4.00;;;1.90;;
76850;SDS011;65824;43.726;20.692;2023-04-01T11:32:20;6.05;;;2.60;;
76850;SDS011;65824;43.726;20.692;2023-04-01T11:34:58;5.97;;;2.70;;
76850;SDS011;65824;43.726;20.692;2023-04-01T11:45:48;5.85;;;2.80;;
76850;SDS011;65824;43.726;20.692;2023-04-01T11:53:44;4.90;;;2.65;;
76850;SDS011;65824;43.726;20.692;2023-04-01T12:07:15;5.28;;;2.63;;
76850;SDS011;65824;43.726;20.692;2023-04-01T12:13:04;6.18;;;3.10;;
76850;SDS011;65824;43.726;20.692;2023-04-01T12:15:50;3.72;;;1.80;;
76850;SDS011;65824;43.726;20.692;2023-04-01T12:18:37;3.05;;;1.50;;
76850;SDS011;65824;43.726;20.692;2023-04-01T12:21:34;2.70;;;1.40;;
76850;SDS011;65824;43.726;20.692;2023-04-01T12:27:11;2.78;;;1.30;;
76850;SDS011;65824;43.726;20.692;2023-04-01T12:30:02;2.63;;;1.13;;
76850;SDS011;65824;43.726;20.692;2023-04-01T12:32:35;2.55;;;1.13;;
76850;SDS011;65824;43.726;20.692;2023-04-01T12:35:22;5.72;;;2.60;;
76850;SDS011;65824;43.726;20.692;2023-04-01T12:43:34;2.55;;;1.10;;
76850;SDS011;65824;43.726;20.692;2023-04-01T12:46:30;3.17;;;1.30;;
76850;SDS011;65824;43.726;20.692;2023-04-01T12:52:08;2.85;;;1.20;;
76850;SDS011;65824;43.726;20.692;2023-04-01T13:00:25;3.78;;;1.55;;
76850;SDS011;65824;43.726;20.692;2023-04-01T13:05:57;5.35;;;1.90;;
76850;SDS011;65824;43.726;20.692;2023-04-01T13:11:15;7.53;;;1.88;;
76850;SDS011;65824;43.726;20.692;2023-04-01T13:16:46;4.20;;;1.65;;
76850;SDS011;65824;43.726;20.692;2023-04-01T13:19:20;3.90;;;1.70;;
76850;SDS011;65824;43.726;20.692;2023-04-01T13:22:08;5.55;;;2.05;;
76850;SDS011;65824;43.726;20.692;2023-04-01T13:31:14;2.78;;;1.27;;
76850;SDS011;65824;43.726;20.692;2023-04-01T13:33:54;3.65;;;1.20;;
76850;SDS011;65824;43.726;20.692;2023-04-01T13:36:50;3.58;;;1.30;;
76850;SDS011;65824;43.726;20.692;2023-04-01T13:42:28;3.40;;;1.15;;
76850;SDS011;65824;43.726;20.692;2023-04-01T14:01:39;4.03;;;1.70;;
76850;SDS011;65824;43.726;20.692;2023-04-01T14:06:53;4.72;;;1.50;;
76850;SDS011;65824;43.726;20.692;2023-04-01T14:10:13;3.67;;;1.33;;
76850;SDS011;65824;43.726;20.692;2023-04-01T14:15:07;3.42;;;1.60;;
76850;SDS011;65824;43.726;20.692;2023-04-01T14:20:58;3.60;;;1.50;;
76850;SDS011;65824;43.726;20.692;2023-04-01T14:32:10;4.75;;;1.63;;
76850;SDS011;65824;43.726;20.692;2023-04-01T14:48:32;6.93;;;3.30;;
76850;SDS011;65824;43.726;20.692;2023-04-01T14:51:43;6.38;;;2.92;;
76850;SDS011;65824;43.726;20.692;2023-04-01T14:59:17;6.38;;;3.30;;
76850;SDS011;65824;43.726;20.692;2023-04-01T15:01:58;7.07;;;3.78;;
76850;SDS011;65824;43.726;20.692;2023-04-01T15:07:31;5.15;;;2.47;;
76850;SDS011;65824;43.726;20.692;2023-04-01T15:23:41;4.82;;;2.00;;
76850;SDS011;65824;43.726;20.692;2023-04-01T15:31:16;4.57;;;2.80;;
76850;SDS011;65824;43.726;20.692;2023-04-01T15:33:45;7.82;;;3.03;;
76850;SDS011;65824;43.726;20.692;2023-04-01T15:36:16;5.93;;;3.10;;
76850;SDS011;65824;43.726;20.692;2023-04-01T15:39:17;6.05;;;2.90;;
76850;SDS011;65824;43.726;20.692;2023-04-01T15:42:04;7.07;;;3.08;;
76850;SDS011;65824;43.726;20.692;2023-04-01T15:45:16;4.88;;;2.13;;
76850;SDS011;65824;43.726;20.692;2023-04-01T15:50:43;8.48;;;4.80;;
76850;SDS011;65824;43.726;20.692;2023-04-01T16:01:51;10.57;;;6.00;;
76850;SDS011;65824;43.726;20.692;2023-04-01T16:18:07;5.55;;;2.47;;
76850;SDS011;65824;43.726;20.692;2023-04-01T16:20:43;8.13;;;3.80;;
76850;SDS011;65824;43.726;20.692;2023-04-01T16:25:52;9.15;;;2.85;;
76850;SDS011;65824;43.726;20.692;2023-04-01T16:31:06;8.23;;;3.42;;
76850;SDS011;65824;43.726;20.692;2023-04-01T16:39:09;5.70;;;2.33;;
76850;SDS011;65824;43.726;20.692;2023-04-01T16:41:52;4.63;;;2.33;;
76850;SDS011;65824;43.726;20.692;2023-04-01T16:44:32;5.10;;;2.45;;
76850;SDS011;65824;43.726;20.692;2023-04-01T16:47:22;10.23;;;5.80;;
76850;SDS011;65824;43.726;20.692;2023-04-01T16:50:19;16.08;;;8.05;;
76850;SDS011;65824;43.726;20.692;2023-04-01T16:53:30;6.53;;;3.05;;
76850;SDS011;65824;43.726;20.692;2023-04-01T16:55:49;6.30;;;2.92;;
76850;SDS011;65824;43.726;20.692;2023-04-01T16:58:27;8.98;;;3.80;;
76850;SDS011;65824;43.726;20.692;2023-04-01T17:01:02;5.80;;;2.85;;
76850;SDS011;65824;43.726;20.692;2023-04-01T17:03:52;6.70;;;3.50;;
76850;SDS011;65824;43.726;20.692;2023-04-01T17:11:37;8.45;;;4.10;;
76850;SDS011;65824;43.726;20.692;2023-04-01T17:17:20;8.40;;;3.50;;
76850;SDS011;65824;43.726;20.692;2023-04-01T17:31:12;14.25;;;7.32;;
76850;SDS011;65824;43.726;20.692;2023-04-01T17:40:24;20.45;;;10.32;;
76850;SDS011;65824;43.726;20.692;2023-04-01T17:43:04;19.48;;;10.43;;
76850;SDS011;65824;43.726;20.692;2023-04-01T17:46:02;22.42;;;10.68;;
76850;SDS011;65824;43.726;20.692;2023-04-01T17:48:43;23.80;;;11.25;;
76850;SDS011;65824;43.726;20.692;2023-04-01T17:51:19;19.80;;;10.73;;
76850;SDS011;65824;43.726;20.692;2023-04-01T17:54:15;19.92;;;10.45;;
76850;SDS011;65824;43.726;20.692;2023-04-01T17:57:22;21.27;;;10.77;;
76850;SDS011;65824;43.726;20.692;2023-04-01T18:00:02;19.50;;;10.23;;
76850;SDS011;65824;43.726;20.692;2023-04-01T18:11:13;15.50;;;8.10;;
76850;SDS011;65824;43.726;20.692;2023-04-01T18:27:39;36.35;;;20.38;;
76850;SDS011;65824;43.726;20.692;2023-04-01T18:30:27;38.05;;;21.08;;
76850;SDS011;65824;43.726;20.692;2023-04-01T18:32:59;38.33;;;20.65;;
76850;SDS011;65824;43.726;20.692;2023-04-01T18:38:33;36.97;;;20.02;;
76850;SDS011;65824;43.726;20.692;2023-04-01T18:41:18;38.13;;;19.15;;
76850;SDS011;65824;43.726;20.692;2023-04-01T18:46:36;32.28;;;16.05;;
76850;SDS011;65824;43.726;20.692;2023-04-01T18:51:39;24.83;;;12.25;;
76850;SDS011;65824;43.726;20.692;2023-04-01T18:54:27;20.48;;;11.05;;
76850;SDS011;65824;43.726;20.692;2023-04-01T18:57:08;20.25;;;10.77;;
76850;SDS011;65824;43.726;20.692;2023-04-01T18:59:48;17.27;;;10.80;;
76850;SDS011;65824;43.726;20.692;2023-04-01T19:07:45;36.47;;;16.92;;
76850;SDS011;65824;43.726;20.692;2023-04-01T19:16:29;36.30;;;19.38;;
76850;SDS011;65824;43.726;20.692;2023-04-01T19:19:05;35.95;;;19.25;;
76850;SDS011;65824;43.726;20.692;2023-04-01T19:21:37;34.15;;;18.67;;
76850;SDS011;65824;43.726;20.692;2023-04-01T19:29:45;31.63;;;16.98;;
76850;SDS011;65824;43.726;20.692;2023-04-01T19:46:51;19.92;;;11.18;;
76850;SDS011;65824;43.726;20.692;2023-04-01T19:49:27;17.80;;;10.25;;
76850;SDS011;65824;43.726;20.692;2023-04-01T19:52:35;19.45;;;10.70;;
76850;SDS011;65824;43.726;20.692;2023-04-01T19:58:18;19.45;;;10.10;;
76850;SDS011;65824;43.726;20.692;2023-04-01T20:00:58;18.40;;;9.55;;
76850;SDS011;65824;43.726;20.692;2023-04-01T20:11:58;29.38;;;16.27;;
76850;SDS011;65824;43.726;20.692;2023-04-01T20:14:50;30.52;;;16.33;;
76850;SDS011;65824;43.726;20.692;2023-04-01T20:19:53;29.48;;;15.80;;
76850;SDS011;65824;43.726;20.692;2023-04-01T20:22:48;36.50;;;19.95;;
76850;SDS011;65824;43.726;20.692;2023-04-01T20:28:01;47.15;;;23.00;;
76850;SDS011;65824;43.726;20.692;2023-04-01T20:34:02;30.85;;;17.90;;
76850;SDS011;65824;43.726;20.692;2023-04-01T20:42:27;28.20;;;15.13;;
76850;SDS011;65824;43.726;20.692;2023-04-01T20:45:18;32.03;;;16.10;;
76850;SDS011;65824;43.726;20.692;2023-04-01T20:51:04;24.08;;;12.02;;
76850;SDS011;65824;43.726;20.692;2023-04-01T20:53:43;27.05;;;13.32;;
76850;SDS011;65824;43.726;20.692;2023-04-01T20:56:29;25.70;;;13.90;;
76850;SDS011;65824;43.726;20.692;2023-04-01T20:59:24;27.27;;;15.35;;
76850;SDS011;65824;43.726;20.692;2023-04-01T21:07:50;34.58;;;18.52;;
76850;SDS011;65824;43.726;20.692;2023-04-01T21:10:41;38.20;;;18.63;;
76850;SDS011;65824;43.726;20.692;2023-04-01T21:13:33;35.75;;;19.60;;
76850;SDS011;65824;43.726;20.692;2023-04-01T21:16:33;34.17;;;19.27;;
76850;SDS011;65824;43.726;20.692;2023-04-01T21:19:29;36.10;;;19.48;;
76850;SDS011;65824;43.726;20.692;2023-04-01T21:29:39;40.80;;;20.75;;
76850;SDS011;65824;43.726;20.692;2023-04-01T21:40:30;25.10;;;13.63;;
76850;SDS011;65824;43.726;20.692;2023-04-01T21:45:42;28.60;;;15.45;;
76850;SDS011;65824;43.726;20.692;2023-04-01T22:17:08;53.50;;;27.48;;
76850;SDS011;65824;43.726;20.692;2023-04-01T22:23:02;58.50;;;31.55;;
76850;SDS011;65824;43.726;20.692;2023-04-01T22:28:44;34.50;;;18.17;;
76850;SDS011;65824;43.726;20.692;2023-04-01T22:31:26;23.77;;;12.75;;
76850;SDS011;65824;43.726;20.692;2023-04-01T22:43:09;17.67;;;7.82;;
76850;SDS011;65824;43.726;20.692;2023-04-01T22:49:29;22.83;;;10.93;;
76850;SDS011;65824;43.726;20.692;2023-04-01T23:00:15;50.78;;;25.83;;
76850;SDS011;65824;43.726;20.692;2023-04-01T23:05:55;53.05;;;27.27;;
76850;SDS011;65824;43.726;20.692;2023-04-01T23:35:53;25.08;;;13.88;;
76850;SDS011;65824;43.726;20.692;2023-04-01T23:38:20;25.90;;;13.00;;
76850;SDS011;65824;43.726;20.692;2023-04-01T23:40:50;26.70;;;14.98;;
76850;SDS011;65824;43.726;20.692;2023-04-01T23:43:26;28.80;;;16.05;;
76850;SDS011;65824;43.726;20.692;2023-04-01T23:45:55;30.63;;;16.35;;
76850;SDS011;65824;43.726;20.692;2023-04-01T23:48:26;33.83;;;16.48;;
76850;SDS011;65824;43.726;20.692;2023-04-01T23:50:53;35.80;;;16.77;;
76850;SDS011;65824;43.726;20.692;2023-04-01T23:53:21;34.15;;;16.63;;
76850;SDS011;65824;43.726;20.692;2023-04-01T23:55:52;27.98;;;15.27;;
